Stations météo

réclame
Mon MeteoGroup
Mont-Rigi, Belgique (6494): Température de l'air & dewpoint: 13.06.2019 11:00:00 - 19.06.2019 11:00:00 (CEST)Mont-Rigi, Belgique (6494): Vitesse du vent & gusts: 13.06.2019 11:00:00 - 19.06.2019 11:00:00 (CEST)Mont-Rigi, Belgique (6494): Direction du vent: 13.06.2019 11:00:00 - 19.06.2019 11:00:00 (CEST)Mont-Rigi, Belgique (6494): reduced air pressure: 13.06.2019 11:00:00 - 19.06.2019 11:00:00 (CEST)Mont-Rigi, Belgique (6494): Ensoleillement: 13.06.2019 11:00:00 - 19.06.2019 11:00:00 (CEST)Mont-Rigi, Belgique (6494): Quantités de précipitations: 13.06.2019 11:00:00 - 19.06.2019 11:00:00 (CEST)
Date & Time tt [°C] td [°C] ff [km/h] ff [knt] fx [km/h] fx [knt] dd ppp [hPa] sd [min] rr [mm]
19.06.2019 11:00:00 19,2 11,9 22 12 - - S 1008,5 - -
19.06.2019 10:00:00 20,4 13,2 22 12 36 20 S 1007,3 0 0,0
19.06.2019 09:00:00 20,3 12,5 19 10 32 17 SSE 1007,7 0 0,0
19.06.2019 08:00:00 19,2 12,4 18 10 26 14 SSE 1007,8 0 0,0
19.06.2019 07:00:00 17,3 12,2 14 8 22 12 SSE 1008,8 0 0,0
19.06.2019 06:00:00 16,3 12,2 13 7 21 12 SSE 1009,6 0 0,0
19.06.2019 05:00:00 16,1 11,9 13 7 20 11 SSE 1009,4 0 0,0
19.06.2019 04:00:00 16,1 11,8 9 5 17 9 SSE 1009,9 0 0,0
19.06.2019 03:00:00 14,7 10,6 7 4 10 6 S 1010,6 0 0,0
19.06.2019 02:00:00 - - - - - - - - - -
19.06.2019 01:00:00 14,5 9,7 8 4 10 5 SSE 1011,6 0 0,0
19.06.2019 00:00:00 15,4 9,5 6 4 9 5 S 1011,8 0 0,0
18.06.2019 23:00:00 14,7 9,5 5 3 10 5 SSE 1012,6 0 0,0
18.06.2019 22:00:00 17,1 11,1 8 4 10 6 SSE 1012,1 0 0,0
18.06.2019 21:00:00 20,1 11,1 6 3 9 5 S 1011,4 0 0,0
18.06.2019 20:00:00 22,2 13,2 4 2 9 5 NNE 1010,6 0 0,0
18.06.2019 19:00:00 21,6 13,4 5 3 11 6 NNE 1010,9 0 0,0
18.06.2019 18:00:00 21,8 13,1 5 3 12 6 NNW 1011,5 0 0,0
18.06.2019 17:00:00 22,8 13,6 7 4 18 10 WNW 1011,6 0 0,0
18.06.2019 16:00:00 21,9 12,8 7 4 13 7 NW 1012,2 0 0,0
18.06.2019 15:00:00 23,1 10,9 9 5 20 11 SSW 1012,3 0 0,0
18.06.2019 14:00:00 23,2 11,6 7 4 20 11 SE 1012,2 0 0,0
18.06.2019 13:00:00 22,6 11,1 11 6 22 12 SE 1012,8 1 0,0
18.06.2019 12:00:00 22,6 10,9 9 5 20 11 SSE 1012,9 0 0,0
18.06.2019 11:00:00 21,3 9,3 4 2 11 6 S 1013,7 0 0,0
18.06.2019 10:00:00 20,9 10,3 5 3 8 4 NW 1014,1 0 0,0
18.06.2019 09:00:00 20,3 10,5 0 0 6 3 N 1014,4 0 0,0
18.06.2019 08:00:00 18,9 13,6 4 2 5 3 SE 1014,7 0 0,0
18.06.2019 07:00:00 12,4 10,6 0 0 6 3 N 1016,3 0 0,0
18.06.2019 06:00:00 11,6 9,2 5 3 7 4 ESE 1016,5 0 0,0
18.06.2019 05:00:00 11,4 9,1 5 3 8 4 ESE 1017,0 0 0,0
18.06.2019 04:00:00 11,7 8,7 5 3 8 4 ESE 1017,1 0 0,0
18.06.2019 03:00:00 11,6 8,8 6 3 8 4 SE 1017,5 0 0,0
18.06.2019 02:00:00 11,6 8,4 4 2 9 5 ESE 1017,9 0 0,0
18.06.2019 01:00:00 13,2 8,8 6 4 10 6 SE 1017,9 0 0,0
18.06.2019 00:00:00 13,5 8,9 8 4 11 6 SE 1017,7 0 0,0
17.06.2019 23:00:00 13,2 9,0 7 4 10 5 SE 1017,9 0 0,0
17.06.2019 22:00:00 14,1 9,2 5 3 7 4 SE 1017,6 0 0,0
17.06.2019 21:00:00 15,8 9,0 4 2 7 4 ESE 1017,4 0 0,0
17.06.2019 20:00:00 20,2 8,4 7 4 13 7 S 1016,3 0 0,0
17.06.2019 19:00:00 21,8 8,0 8 4 17 9 S 1016,3 0 0,0
17.06.2019 18:00:00 22,5 8,5 9 5 18 10 SSE 1016,4 0 0,0
17.06.2019 17:00:00 21,7 8,3 10 5 21 11 SE 1016,8 0 0,0
17.06.2019 16:00:00 22,4 8,6 9 5 18 10 S 1016,9 0 0,0
17.06.2019 15:00:00 21,7 9,0 10 5 16 9 S 1017,5 0 0,0
17.06.2019 14:00:00 19,4 7,8 7 4 19 10 SE 1018,7 0 0,0
17.06.2019 13:00:00 20,4 7,5 8 4 19 11 E 1018,8 0 0,0
17.06.2019 12:00:00 19,5 7,5 10 5 19 10 SSE 1019,2 0 0,0
17.06.2019 11:00:00 18,9 9,6 9 5 22 12 S 1019,4 0 0,0
17.06.2019 10:00:00 17,7 10,0 13 7 22 12 SSE 1020,1 0 0,0
17.06.2019 09:00:00 16,4 10,3 14 8 23 12 SE 1020,6 0 0,0
17.06.2019 08:00:00 15,1 10,0 11 6 18 10 SE 1020,6 0 0,0
17.06.2019 07:00:00 12,4 9,3 9 5 16 9 ESE 1021,2 0 0,0
17.06.2019 06:00:00 10,6 9,5 7 4 16 8 E 1021,9 0 0,0
17.06.2019 05:00:00 9,4 8,9 5 3 8 5 E 1022,5 0 0,0
17.06.2019 04:00:00 8,9 8,3 4 2 5 3 E 1022,8 0 0,0
17.06.2019 03:00:00 8,9 8,3 4 2 4 2 ESE 1023,0 0 0,0
17.06.2019 02:00:00 9,0 8,2 4 2 4 2 ESE 1023,0 0 0,0
17.06.2019 01:00:00 9,2 8,2 4 2 4 2 ESE 1023,1 0 0,0
17.06.2019 00:00:00 9,5 8,3 4 2 3 2 ESE 1022,8 0 0,0
16.06.2019 23:00:00 9,9 8,3 0 0 4 2 N 1022,8 0 0,0
16.06.2019 22:00:00 11,2 8,0 4 2 4 2 NW 1022,2 0 0,0
16.06.2019 21:00:00 14,7 9,2 4 2 13 7 W 1021,3 0 0,0
16.06.2019 20:00:00 16,0 9,1 11 6 16 9 WSW 1020,8 0 0,0
16.06.2019 19:00:00 16,5 8,1 10 5 21 12 W 1020,5 0 0,0
16.06.2019 18:00:00 16,0 9,2 5 3 17 9 S 1020,5 0 0,0
16.06.2019 17:00:00 15,9 9,2 12 6 26 14 WSW 1020,8 0 0,0
16.06.2019 16:00:00 16,0 9,2 11 6 21 11 WSW 1020,5 0 0,0
16.06.2019 15:00:00 16,2 8,9 16 8 26 14 SW 1020,5 0 0,0
16.06.2019 14:00:00 14,0 9,4 14 8 25 14 WSW 1021,2 0 0,0
16.06.2019 13:00:00 15,1 8,0 18 10 33 18 SSW 1020,8 1 0,0
16.06.2019 12:00:00 15,1 9,4 18 10 32 17 WSW 1020,5 1 0,0
16.06.2019 11:00:00 13,9 8,9 16 9 27 14 SW 1020,5 0 0,0
16.06.2019 10:00:00 13,6 9,9 17 9 27 15 SW 1019,9 0 0,0
16.06.2019 09:00:00 13,0 9,2 16 9 23 13 SW 1019,8 0 0,0
16.06.2019 08:00:00 12,1 8,9 11 6 21 12 SSW 1019,6 0 0,0
16.06.2019 07:00:00 9,8 8,6 6 4 11 6 SW 1020,1 0 0,0
16.06.2019 06:00:00 - - - - - - - - - -
16.06.2019 05:00:00 7,9 6,2 6 3 11 6 WSW 1020,0 0 0,0
16.06.2019 04:00:00 9,6 7,0 8 5 17 9 WSW 1019,5 0 0,0
16.06.2019 03:00:00 10,2 7,3 7 4 15 8 SW 1019,2 0 0,0
16.06.2019 02:00:00 11,3 8,5 7 4 16 8 WSW 1019,0 0 0,0
16.06.2019 01:00:00 12,7 9,4 10 5 14 8 WSW 1018,6 0 0,0
16.06.2019 00:00:00 11,5 9,8 4 2 9 5 SSW 1018,1 0 0,0
15.06.2019 23:00:00 11,8 8,3 4 2 13 7 WSW 1017,3 0 0,0
15.06.2019 22:00:00 13,3 9,4 6 3 11 6 WSW 1016,6 0 0,0
15.06.2019 21:00:00 - - - - - - - - - -
15.06.2019 20:00:00 16,9 9,0 11 6 21 11 WSW 1015,1 0 0,0
15.06.2019 19:00:00 17,6 8,8 15 8 28 15 SW 1014,7 0 0,0
15.06.2019 18:00:00 18,5 8,5 19 10 31 17 WSW 1014,6 0 0,0
15.06.2019 17:00:00 18,2 8,4 19 10 32 17 SW 1014,7 0 0,0
15.06.2019 16:00:00 17,7 9,1 17 9 33 18 SW 1014,9 0 0,0
15.06.2019 15:00:00 17,6 9,2 21 11 33 18 SW 1015,5 0 0,0
15.06.2019 14:00:00 17,6 9,9 25 14 39 21 WSW 1015,1 0 0,0
15.06.2019 13:00:00 15,7 13,8 18 10 34 19 WSW 1014,9 2 0,0
15.06.2019 12:00:00 14,5 14,1 18 10 31 17 WSW 1014,4 1 0,1
15.06.2019 11:00:00 13,1 12,4 14 7 39 21 WSW 1014,5 0 1,0
15.06.2019 10:00:00 14,1 12,9 19 10 41 22 WSW 1013,2 0 0,0
15.06.2019 09:00:00 13,0 12,7 21 12 31 17 SW 1012,5 0 0,5
15.06.2019 08:00:00 13,0 12,7 18 10 27 14 SW 1011,8 0 0,0
15.06.2019 07:00:00 12,6 12,3 10 6 19 10 S 1011,2 0 2,0
15.06.2019 06:00:00 12,6 12,1 9 5 18 10 SSW 1011,0 0 4,5
15.06.2019 05:00:00 12,5 11,9 10 6 18 10 SW 1011,0 0 2,2
15.06.2019 04:00:00 12,7 11,9 4 2 12 7 W 1010,4 0 0,7
15.06.2019 03:00:00 12,9 12,0 0 0 13 7 N 1010,9 0 0,0
15.06.2019 02:00:00 13,0 12,1 7 4 8 4 NNE 1010,3 0 0,3
15.06.2019 01:00:00 13,1 12,0 0 0 6 3 N 1011,9 0 0,4
15.06.2019 00:00:00 13,6 11,7 4 2 8 4 WSW 1013,2 0 0,7
14.06.2019 23:00:00 14,6 10,6 5 3 9 5 SSW 1012,5 0 0,0
14.06.2019 22:00:00 16,1 10,2 9 5 14 7 SE 1012,0 0 0,0
14.06.2019 21:00:00 17,1 9,8 10 6 18 10 SSE 1012,0 0 0,0
14.06.2019 20:00:00 18,5 9,8 7 4 19 11 SE 1011,7 0 0,0
14.06.2019 19:00:00 20,4 9,4 10 5 17 9 SSE 1011,5 0 0,0
14.06.2019 18:00:00 - - - - - - - - - -
14.06.2019 17:00:00 21,0 8,8 11 6 26 14 SSW 1012,2 0 0,0
14.06.2019 16:00:00 21,3 8,7 16 9 34 19 S 1012,4 0 0,0
14.06.2019 15:00:00 20,6 9,2 16 9 29 16 S 1013,1 0 0,0
14.06.2019 14:00:00 - - - - - - - - - -
14.06.2019 13:00:00 19,1 10,0 15 8 23 12 S 1014,2 0 0,0
14.06.2019 12:00:00 17,4 9,0 11 6 21 11 SSE 1014,3 0 0,0
14.06.2019 11:00:00 15,8 8,0 4 2 23 13 S 1013,9 0 0,0
14.06.2019 10:00:00 14,7 9,3 10 5 23 12 SSW 1014,8 0 0,0
14.06.2019 09:00:00 14,3 8,6 11 6 21 11 SSW 1014,6 0 0,0
14.06.2019 08:00:00 13,0 8,3 7 4 20 11 S 1014,0 0 0,0
14.06.2019 07:00:00 11,2 6,7 13 7 19 10 SSE 1013,7 0 0,0
14.06.2019 06:00:00 10,6 6,9 12 7 18 10 SSE 1013,6 0 0,0
14.06.2019 05:00:00 9,3 6,9 10 5 16 8 SSE 1014,0 0 0,0
14.06.2019 04:00:00 7,7 5,9 9 5 12 6 SE 1014,6 0 0,0
14.06.2019 03:00:00 8,3 6,0 10 5 12 7 SSE 1014,9 0 0,0
14.06.2019 02:00:00 8,9 7,4 11 6 14 8 SSE 1015,2 0 0,0
14.06.2019 01:00:00 9,2 7,8 9 5 16 8 S 1015,2 0 0,0
14.06.2019 00:00:00 9,5 7,9 12 7 18 10 S 1015,0 0 0,0
13.06.2019 23:00:00 10,1 8,3 12 7 21 11 SSE 1014,6 0 0,3
13.06.2019 22:00:00 10,5 8,5 11 6 24 13 S 1014,0 0 0,1
13.06.2019 21:00:00 11,3 8,7 14 7 29 16 S 1013,3 0 0,0
13.06.2019 20:00:00 11,5 10,1 14 8 24 13 SSE 1012,8 0 0,0
13.06.2019 19:00:00 9,3 6,8 18 10 45 25 SSW 1014,4 0 6,1
13.06.2019 18:00:00 14,9 5,3 29 16 51 28 SSW 1012,1 0 0,0
13.06.2019 17:00:00 16,1 5,5 27 14 50 27 SSW 1011,5 0 0,0
13.06.2019 16:00:00 16,3 5,8 23 12 41 22 SSW 1011,5 0 0,0
13.06.2019 15:00:00 15,5 6,0 26 14 44 24 SSW 1012,1 0 0,0
13.06.2019 14:00:00 14,2 5,5 22 12 47 25 SSW 1012,3 0 0,0
13.06.2019 13:00:00 13,5 6,4 21 12 50 27 SSW 1012,7 5 0,0
13.06.2019 12:00:00 13,2 6,9 19 11 45 24 SSW 1012,3 3 0,0
13.06.2019 11:00:00 12,5 6,4 28 15 48 26 S 1012,5 0 0,0

tt = Température de l'air
td = dewpoint
ff = Vitesse du vent
fx = gusts
dd = Direction du vent
ppp = reduced air pressure
sd = Ensoleillement
rr = Quantités de précipitations

stations d'obs. à proximité